Time;durP1;ratioP1;P1;durP2;ratioP2;P2;SDS_P1;SDS_P2;PMS_P1;PMS_P2;Temp;Humidity;BMP_temperature;BMP_pressure;BME280_temperature;BME280_humidity;BME280_pressure;Samples;Min_cycle;Max_cycle;Signal;HPM_P1;HPM_P2
2023/07/02 00:02:09;;;;;;;21.58;4.95;;;;;;;;;;5053319;28;20029;-48
2023/07/02 00:04:36;;;;;;;19.65;4.80;;;;;;;;;;5053306;28;20075;-49
2023/07/02 00:07:04;;;;;;;23.88;5.32;;;;;;;;;;5053680;28;20491;-48
2023/07/02 00:09:31;;;;;;;20.08;5.05;;;;;;;;;;5052389;28;20127;-48
2023/07/02 00:11:58;;;;;;;14.48;4.93;;;;;;;;;;5052981;28;20061;-49
2023/07/02 00:14:25;;;;;;;27.13;5.85;;;;;;;;;;5052778;28;20054;-49
2023/07/02 00:16:52;;;;;;;14.50;4.78;;;;;;;;;;5053597;28;20031;-48
2023/07/02 00:19:19;;;;;;;17.13;4.82;;;;;;;;;;5053842;28;20029;-50
2023/07/02 00:21:47;;;;;;;25.33;5.22;;;;;;;;;;5051829;28;20526;-47
2023/07/02 00:24:15;;;;;;;15.02;4.60;;;;;;;;;;5050810;28;20068;-47
2023/07/02 00:26:43;;;;;;;28.75;5.22;;;;;;;;;;5053141;28;20075;-49
2023/07/02 00:29:10;;;;;;;18.35;4.80;;;;;;;;;;5053614;28;20391;-50
2023/07/02 00:31:37;;;;;;;20.63;4.60;;;;;;;;;;5051602;28;20103;-47
2023/07/02 00:34:05;;;;;;;15.85;5.20;;;;;;;;;;5053335;28;20152;-51
2023/07/02 00:36:32;;;;;;;13.30;5.80;;;;;;;;;;5051061;28;20041;-49
2023/07/02 00:39:00;;;;;;;11.73;5.00;;;;;;;;;;5052491;28;20505;-55
2023/07/02 00:41:27;;;;;;;16.95;4.57;;;;;;;;;;5051383;28;20029;-53
2023/07/02 00:43:54;;;;;;;14.85;4.85;;;;;;;;;;5051983;28;20114;-50
2023/07/02 00:46:22;;;;;;;14.60;4.80;;;;;;;;;;5051444;28;20033;-53
2023/07/02 00:48:53;;;;;;;14.07;4.55;;;;;;;;;;5052948;28;20033;-51
2023/07/02 00:51:24;;;;;;;15.35;4.75;;;;;;;;;;5052253;28;20028;-58
2023/07/02 00:53:53;;;;;;;14.23;4.37;;;;;;;;;;5031679;28;20111;-48
2023/07/02 00:56:20;;;;;;;15.95;4.88;;;;;;;;;;5045018;28;20037;-48
2023/07/02 00:58:50;;;;;;;16.95;4.97;;;;;;;;;;5052959;28;20037;-49
2023/07/02 01:01:18;;;;;;;13.30;5.00;;;;;;;;;;5053169;28;20170;-49
2023/07/02 01:03:54;;;;;;;18.98;4.60;;;;;;;;;;5051403;28;20570;-50
2023/07/02 01:06:25;;;;;;;13.73;4.63;;;;;;;;;;5052935;28;20120;-50
2023/07/02 01:08:59;;;;;;;16.02;4.65;;;;;;;;;;5053058;28;20104;-52
2023/07/02 01:11:47;;;;;;;21.67;5.30;;;;;;;;;;5052731;28;20037;-50
2023/07/02 01:14:46;;;;;;;20.48;5.38;;;;;;;;;;5051376;28;20174;-48
2023/07/02 01:17:13;;;;;;;17.42;4.43;;;;;;;;;;4990343;28;20045;-50
2023/07/02 01:19:52;;;;;;;18.13;4.35;;;;;;;;;;5049306;28;20551;-51
2023/07/02 01:22:20;;;;;;;17.60;4.30;;;;;;;;;;5052861;28;20079;-47
2023/07/02 01:24:48;;;;;;;16.98;4.47;;;;;;;;;;5039790;28;20057;-49
2023/07/02 01:27:16;;;;;;;14.07;4.18;;;;;;;;;;5047984;28;20045;-50
2023/07/02 01:29:46;;;;;;;16.60;4.32;;;;;;;;;;5052694;28;20033;-48
2023/07/02 01:32:14;;;;;;;17.10;4.47;;;;;;;;;;5052501;28;20403;-50
2023/07/02 01:34:41;;;;;;;20.05;4.35;;;;;;;;;;5052178;28;20531;-53
2023/07/02 01:37:09;;;;;;;14.88;4.25;;;;;;;;;;5051507;28;20025;-48
2023/07/02 01:39:36;;;;;;;13.55;4.78;;;;;;;;;;5052315;28;20025;-48
2023/07/02 01:42:09;;;;;;;18.02;5.93;;;;;;;;;;5051835;28;20483;-48
2023/07/02 01:44:37;;;;;;;13.07;5.50;;;;;;;;;;5052411;28;20035;-48
2023/07/02 01:47:04;;;;;;;19.23;5.78;;;;;;;;;;5050738;28;20021;-49
2023/07/02 01:49:32;;;;;;;23.98;5.95;;;;;;;;;;5052157;28;20029;-51
2023/07/02 01:51:59;;;;;;;15.02;6.00;;;;;;;;;;5052123;28;20078;-49
2023/07/02 01:54:27;;;;;;;16.75;6.97;;;;;;;;;;5052138;28;20052;-51
2023/07/02 01:56:55;;;;;;;19.77;6.80;;;;;;;;;;5030910;28;20037;-49
2023/07/02 01:59:22;;;;;;;18.50;6.97;;;;;;;;;;5045045;28;20033;-48
2023/07/02 02:01:49;;;;;;;23.15;8.68;;;;;;;;;;5045731;28;20394;-48
2023/07/02 02:04:16;;;;;;;27.40;10.32;;;;;;;;;;5030477;28;20036;-51
2023/07/02 02:06:43;;;;;;;44.58;14.10;;;;;;;;;;5029013;28;20064;-48
2023/07/02 02:09:10;;;;;;;34.17;11.45;;;;;;;;;;5031910;28;20068;-50
2023/07/02 02:11:41;;;;;;;25.83;11.20;;;;;;;;;;5032045;28;20037;-52
2023/07/02 02:14:08;;;;;;;28.85;11.50;;;;;;;;;;5030189;28;20034;-50
2023/07/02 02:16:35;;;;;;;27.45;10.90;;;;;;;;;;5031900;28;20037;-50
2023/07/02 02:19:02;;;;;;;23.27;10.68;;;;;;;;;;5034046;28;20036;-47
2023/07/02 02:21:30;;;;;;;28.95;11.05;;;;;;;;;;5051598;28;20036;-53
2023/07/02 02:23:57;;;;;;;32.78;10.38;;;;;;;;;;5049864;28;20068;-50
2023/07/02 02:26:25;;;;;;;32.63;9.45;;;;;;;;;;5051539;28;20505;-51
2023/07/02 02:28:52;;;;;;;33.00;11.02;;;;;;;;;;5051311;28;20028;-52
2023/07/02 02:31:19;;;;;;;32.03;9.75;;;;;;;;;;5047551;28;20021;-55
2023/07/02 02:33:46;;;;;;;36.15;9.88;;;;;;;;;;5041715;28;20577;-52
2023/07/02 02:36:13;;;;;;;40.80;9.57;;;;;;;;;;5049445;28;20160;-53
2023/07/02 02:38:40;;;;;;;30.75;9.30;;;;;;;;;;5051360;28;20044;-46
2023/07/02 02:41:08;;;;;;;32.85;8.90;;;;;;;;;;5039007;28;20116;-48
2023/07/02 02:43:35;;;;;;;28.10;8.02;;;;;;;;;;5060668;28;20033;-49
2023/07/02 02:46:02;;;;;;;28.52;8.20;;;;;;;;;;5040847;28;20075;-48
2023/07/02 02:48:29;;;;;;;26.25;7.45;;;;;;;;;;5037888;28;20105;-57
2023/07/02 02:50:56;;;;;;;35.90;8.35;;;;;;;;;;5046364;28;20044;-58
2023/07/02 02:53:23;;;;;;;34.80;8.27;;;;;;;;;;5038869;28;20045;-51
2023/07/02 02:55:50;;;;;;;33.40;8.13;;;;;;;;;;5048138;28;20483;-54
2023/07/02 02:58:17;;;;;;;31.38;7.55;;;;;;;;;;5044551;28;20022;-52
2023/07/02 03:00:45;;;;;;;32.90;7.07;;;;;;;;;;5041840;28;20037;-48
2023/07/02 03:03:13;;;;;;;31.85;6.97;;;;;;;;;;5051088;28;20025;-49
2023/07/02 03:05:41;;;;;;;27.60;6.45;;;;;;;;;;5051061;28;20039;-49
2023/07/02 03:08:08;;;;;;;34.25;7.07;;;;;;;;;;5049307;28;20033;-51
2023/07/02 03:10:35;;;;;;;30.48;7.32;;;;;;;;;;5050948;28;20041;-54
2023/07/02 03:13:02;;;;;;;29.90;7.00;;;;;;;;;;5056040;28;20063;-50
2023/07/02 03:15:29;;;;;;;29.83;6.20;;;;;;;;;;5059088;28;20036;-48
2023/07/02 03:17:56;;;;;;;23.67;6.43;;;;;;;;;;5041569;28;20092;-52
2023/07/02 03:20:23;;;;;;;29.70;5.60;;;;;;;;;;5029434;28;20124;-49
2023/07/02 03:22:50;;;;;;;33.30;5.80;;;;;;;;;;5039036;28;20032;-50
2023/07/02 03:25:17;;;;;;;25.05;5.90;;;;;;;;;;5050971;28;20128;-49
2023/07/02 03:27:44;;;;;;;23.85;5.65;;;;;;;;;;5049940;28;20483;-57
2023/07/02 03:30:11;;;;;;;33.22;5.70;;;;;;;;;;5050158;28;20025;-52
2023/07/02 03:32:38;;;;;;;25.08;5.88;;;;;;;;;;5063959;28;20116;-51
2023/07/02 03:35:06;;;;;;;32.60;5.68;;;;;;;;;;5043363;28;20091;-55
2023/07/02 03:37:33;;;;;;;21.98;5.22;;;;;;;;;;5030546;28;20033;-51
2023/07/02 03:40:00;;;;;;;22.33;4.63;;;;;;;;;;5029209;28;20798;-51
2023/07/02 03:42:27;;;;;;;24.30;5.25;;;;;;;;;;5030564;28;20045;-50
2023/07/02 03:44:54;;;;;;;25.67;4.88;;;;;;;;;;5030737;28;20118;-49
2023/07/02 03:47:21;;;;;;;20.42;4.90;;;;;;;;;;5030654;28;20057;-55
2023/07/02 03:49:48;;;;;;;17.48;4.78;;;;;;;;;;5034096;28;20082;-54
2023/07/02 03:52:15;;;;;;;27.73;4.97;;;;;;;;;;5038743;28;20045;-53
2023/07/02 03:54:42;;;;;;;21.83;4.65;;;;;;;;;;5030299;28;20087;-52
2023/07/02 03:57:10;;;;;;;24.25;4.75;;;;;;;;;;5030635;28;20527;-55
2023/07/02 03:59:36;;;;;;;18.08;4.40;;;;;;;;;;5029934;28;20044;-51
2023/07/02 04:02:04;;;;;;;20.73;4.70;;;;;;;;;;5029727;28;20032;-54
2023/07/02 04:04:31;;;;;;;14.55;3.90;;;;;;;;;;5036142;28;20153;-50
2023/07/02 04:06:58;;;;;;;14.73;4.00;;;;;;;;;;5053566;28;20040;-55
2023/07/02 04:09:25;;;;;;;14.50;4.40;;;;;;;;;;5052468;28;20514;-53
2023/07/02 04:11:52;;;;;;;19.17;4.43;;;;;;;;;;5039243;28;20033;-53
2023/07/02 04:14:19;;;;;;;23.35;4.20;;;;;;;;;;5041977;28;20491;-51
2023/07/02 04:16:46;;;;;;;15.30;4.10;;;;;;;;;;5038583;28;20041;-53
2023/07/02 04:19:13;;;;;;;11.80;4.05;;;;;;;;;;5034077;28;20394;-52
2023/07/02 04:21:40;;;;;;;10.43;3.85;;;;;;;;;;5048255;28;20160;-50
2023/07/02 04:24:07;;;;;;;13.40;3.75;;;;;;;;;;5053536;28;20111;-51
2023/07/02 04:26:36;;;;;;;14.75;3.50;;;;;;;;;;5053688;28;20037;-51
2023/07/02 04:29:03;;;;;;;13.95;3.65;;;;;;;;;;5051421;28;20123;-53
2023/07/02 04:31:30;;;;;;;16.73;3.75;;;;;;;;;;5042705;28;20033;-48
2023/07/02 04:33:59;;;;;;;13.98;3.42;;;;;;;;;;5052337;28;20068;-48
2023/07/02 04:36:26;;;;;;;13.73;3.50;;;;;;;;;;5053619;28;20040;-52
2023/07/02 04:38:53;;;;;;;10.77;3.13;;;;;;;;;;5044094;28;20036;-52
2023/07/02 04:41:20;;;;;;;8.27;2.63;;;;;;;;;;5047743;28;20122;-48
2023/07/02 04:43:48;;;;;;;8.90;3.00;;;;;;;;;;5052076;28;20360;-49
2023/07/02 04:46:15;;;;;;;10.98;3.20;;;;;;;;;;5053370;28;20047;-51
2023/07/02 04:48:42;;;;;;;8.77;3.03;;;;;;;;;;5053083;28;20690;-48
2023/07/02 04:51:09;;;;;;;6.00;2.60;;;;;;;;;;5054641;28;20458;-47
2023/07/02 04:53:37;;;;;;;6.90;2.65;;;;;;;;;;5047539;28;20529;-46
2023/07/02 04:56:04;;;;;;;12.52;3.03;;;;;;;;;;5033330;28;20041;-48
2023/07/02 04:58:31;;;;;;;12.70;3.10;;;;;;;;;;5033227;28;20053;-46
2023/07/02 05:00:58;;;;;;;8.52;2.80;;;;;;;;;;5040163;28;20037;-48
2023/07/02 05:03:26;;;;;;;11.60;3.03;;;;;;;;;;5039023;28;20116;-53
2023/07/02 05:05:53;;;;;;;19.08;2.90;;;;;;;;;;5051858;28;20037;-47
2023/07/02 05:08:20;;;;;;;15.77;3.17;;;;;;;;;;5052893;28;20540;-51
2023/07/02 05:10:47;;;;;;;14.95;3.00;;;;;;;;;;5052910;28;20032;-47
2023/07/02 05:13:14;;;;;;;15.02;3.00;;;;;;;;;;5046583;28;20031;-45
2023/07/02 05:15:41;;;;;;;7.65;2.70;;;;;;;;;;5031719;28;20061;-50
2023/07/02 05:18:08;;;;;;;14.68;2.72;;;;;;;;;;5051767;28;20025;-48
2023/07/02 05:20:35;;;;;;;16.70;2.95;;;;;;;;;;5052424;28;20025;-46
2023/07/02 05:23:02;;;;;;;15.60;3.38;;;;;;;;;;5051800;28;20037;-49
2023/07/02 05:25:29;;;;;;;13.48;2.38;;;;;;;;;;5052443;28;20115;-46
2023/07/02 05:27:56;;;;;;;12.70;2.35;;;;;;;;;;5051862;28;20033;-46
2023/07/02 05:30:23;;;;;;;11.05;2.40;;;;;;;;;;5049563;28;20536;-48
2023/07/02 05:32:50;;;;;;;9.18;2.33;;;;;;;;;;5052018;28;20078;-47
2023/07/02 05:35:17;;;;;;;8.85;2.28;;;;;;;;;;5052250;28;20037;-48
2023/07/02 05:37:45;;;;;;;9.15;2.80;;;;;;;;;;5048247;28;20036;-47
2023/07/02 05:40:12;;;;;;;10.88;2.30;;;;;;;;;;5047273;28;20035;-48
2023/07/02 05:42:39;;;;;;;8.77;2.40;;;;;;;;;;5052711;28;20404;-47
2023/07/02 05:45:06;;;;;;;5.82;2.22;;;;;;;;;;5052724;28;20040;-48
2023/07/02 05:47:33;;;;;;;4.65;2.20;;;;;;;;;;5052478;28;20108;-48
2023/07/02 05:50:00;;;;;;;6.93;2.22;;;;;;;;;;5052571;28;20028;-48
2023/07/02 05:52:27;;;;;;;7.85;2.30;;;;;;;;;;5052544;28;20522;-48
2023/07/02 05:54:54;;;;;;;6.05;2.30;;;;;;;;;;5052378;28;20037;-50
2023/07/02 05:57:21;;;;;;;7.70;1.73;;;;;;;;;;5052423;28;20108;-47
2023/07/02 05:59:48;;;;;;;8.95;2.15;;;;;;;;;;5052126;28;20486;-48
2023/07/02 06:02:15;;;;;;;8.75;2.30;;;;;;;;;;5037975;28;20392;-46
2023/07/02 06:04:42;;;;;;;4.85;1.92;;;;;;;;;;5032272;28;20114;-46
2023/07/02 06:07:09;;;;;;;5.63;1.90;;;;;;;;;;5032285;28;20030;-48
2023/07/02 06:09:36;;;;;;;6.35;1.98;;;;;;;;;;5032183;28;20076;-47
2023/07/02 06:12:03;;;;;;;7.03;1.85;;;;;;;;;;5032164;28;20105;-46
2023/07/02 06:14:30;;;;;;;4.07;1.95;;;;;;;;;;5032044;28;20072;-50
2023/07/02 06:16:57;;;;;;;6.82;1.77;;;;;;;;;;5032163;28;20030;-50
2023/07/02 06:19:24;;;;;;;3.63;1.70;;;;;;;;;;5031984;28;20083;-48
2023/07/02 06:21:51;;;;;;;5.22;1.80;;;;;;;;;;5032186;28;20026;-47
2023/07/02 06:24:18;;;;;;;3.67;1.70;;;;;;;;;;5031988;28;20041;-47
2023/07/02 06:26:45;;;;;;;4.00;1.80;;;;;;;;;;5032095;28;20108;-47
2023/07/02 06:29:12;;;;;;;6.72;2.05;;;;;;;;;;5031580;28;20018;-47
2023/07/02 06:31:39;;;;;;;5.72;1.70;;;;;;;;;;5032064;28;20120;-47
2023/07/02 06:34:08;;;;;;;4.28;1.60;;;;;;;;;;5031866;28;20029;-48
2023/07/02 06:36:35;;;;;;;6.00;1.77;;;;;;;;;;5031963;28;20107;-46
2023/07/02 06:39:02;;;;;;;4.03;1.60;;;;;;;;;;5031922;28;20025;-46
2023/07/02 06:41:29;;;;;;;3.10;1.73;;;;;;;;;;5031927;28;20029;-48
2023/07/02 06:43:56;;;;;;;2.45;1.58;;;;;;;;;;5031876;28;20364;-47
2023/07/02 06:46:23;;;;;;;4.35;1.60;;;;;;;;;;5031724;28;20029;-48
2023/07/02 06:48:50;;;;;;;5.10;1.83;;;;;;;;;;5031743;28;20057;-46
2023/07/02 06:51:18;;;;;;;4.07;1.70;;;;;;;;;;5031756;28;20034;-48
2023/07/02 06:53:45;;;;;;;3.85;1.60;;;;;;;;;;5031603;28;20037;-49
2023/07/02 06:56:12;;;;;;;4.55;1.70;;;;;;;;;;5031751;28;20088;-47
2023/07/02 06:58:46;;;;;;;3.80;1.48;;;;;;;;;;5031525;28;20037;-49
2023/07/02 07:01:13;;;;;;;3.22;1.67;;;;;;;;;;5031679;28;20033;-48
2023/07/02 07:03:40;;;;;;;3.63;1.48;;;;;;;;;;5031648;28;20033;-48
2023/07/02 07:06:06;;;;;;;3.35;1.60;;;;;;;;;;5031623;28;20104;-50
2023/07/02 07:08:33;;;;;;;4.28;1.50;;;;;;;;;;5031514;28;20041;-48
2023/07/02 07:11:00;;;;;;;4.75;1.55;;;;;;;;;;5037825;28;20032;-48
2023/07/02 07:13:27;;;;;;;4.22;1.60;;;;;;;;;;5071379;28;20033;-48
2023/07/02 07:15:55;;;;;;;4.57;1.75;;;;;;;;;;5071532;28;20048;-47
2023/07/02 07:18:22;;;;;;;3.03;1.60;;;;;;;;;;5071384;28;20029;-50
2023/07/02 07:20:49;;;;;;;2.45;1.20;;;;;;;;;;5070026;28;20406;-48
2023/07/02 07:23:17;;;;;;;3.85;1.63;;;;;;;;;;5071248;28;20541;-48
2023/07/02 07:25:44;;;;;;;2.10;1.40;;;;;;;;;;5071417;28;20020;-47
2023/07/02 07:28:15;;;;;;;4.45;1.33;;;;;;;;;;5071095;28;20035;-47
2023/07/02 07:30:43;;;;;;;3.72;1.40;;;;;;;;;;5071149;28;20096;-48
2023/07/02 07:33:09;;;;;;;4.10;1.40;;;;;;;;;;5071157;28;20082;-48
2023/07/02 07:35:37;;;;;;;3.30;1.27;;;;;;;;;;5071232;28;20056;-48
2023/07/02 07:38:04;;;;;;;4.97;1.27;;;;;;;;;;5071319;28;20699;-48
2023/07/02 07:40:31;;;;;;;3.83;1.40;;;;;;;;;;5073179;28;20115;-47
2023/07/02 07:42:58;;;;;;;4.45;1.35;;;;;;;;;;5075139;28;20025;-46
2023/07/02 07:45:25;;;;;;;4.00;1.58;;;;;;;;;;5075078;28;20120;-46
2023/07/02 07:47:52;;;;;;;4.07;1.50;;;;;;;;;;5075115;28;20021;-48
2023/07/02 07:50:19;;;;;;;2.30;1.13;;;;;;;;;;5074908;28;20112;-46
2023/07/02 07:52:46;;;;;;;4.18;1.42;;;;;;;;;;5074941;28;20101;-46
2023/07/02 07:55:13;;;;;;;4.53;1.38;;;;;;;;;;5074782;28;20028;-46
2023/07/02 07:57:40;;;;;;;4.00;1.30;;;;;;;;;;5074789;28;20039;-46
2023/07/02 08:00:11;;;;;;;3.03;1.50;;;;;;;;;;5074713;28;20024;-47
2023/07/02 08:02:37;;;;;;;2.50;1.60;;;;;;;;;;5074568;28;20074;-46
2023/07/02 08:05:05;;;;;;;3.08;1.55;;;;;;;;;;5074759;28;20107;-46
2023/07/02 08:07:32;;;;;;;2.60;1.40;;;;;;;;;;5074683;28;20390;-46
2023/07/02 08:09:59;;;;;;;2.75;1.50;;;;;;;;;;5074559;28;20044;-46
2023/07/02 08:12:28;;;;;;;2.05;1.30;;;;;;;;;;5074536;28;20029;-48
2023/07/02 08:14:55;;;;;;;2.58;1.30;;;;;;;;;;5074212;28;20040;-46
2023/07/02 08:17:22;;;;;;;2.65;1.45;;;;;;;;;;5074520;28;20032;-46
2023/07/02 08:19:49;;;;;;;3.10;1.50;;;;;;;;;;5074365;28;20025;-46
2023/07/02 08:22:16;;;;;;;3.85;1.40;;;;;;;;;;5074417;28;20021;-46
2023/07/02 08:24:43;;;;;;;2.22;1.40;;;;;;;;;;5074189;28;20036;-47
2023/07/02 08:27:13;;;;;;;2.33;1.40;;;;;;;;;;5074106;28;20104;-47
2023/07/02 08:29:40;;;;;;;2.83;1.40;;;;;;;;;;5074003;28;20036;-45
2023/07/02 08:32:08;;;;;;;3.42;1.35;;;;;;;;;;5074249;28;20032;-48
2023/07/02 08:34:35;;;;;;;3.30;1.45;;;;;;;;;;5074190;28;20021;-48
2023/07/02 08:37:01;;;;;;;3.97;1.48;;;;;;;;;;5074228;28;20062;-46
2023/07/02 08:39:28;;;;;;;2.90;1.38;;;;;;;;;;5073932;28;20020;-47
2023/07/02 08:41:56;;;;;;;1.92;1.30;;;;;;;;;;5074061;28;20032;-46
2023/07/02 08:44:23;;;;;;;2.45;1.33;;;;;;;;;;5074060;28;20040;-46
2023/07/02 08:46:56;;;;;;;1.95;1.02;;;;;;;;;;5073960;28;20029;-46
2023/07/02 08:49:23;;;;;;;2.10;1.40;;;;;;;;;;5073926;28;20036;-48
2023/07/02 08:51:50;;;;;;;2.50;1.33;;;;;;;;;;5073716;28;20064;-47
2023/07/02 08:54:20;;;;;;;2.50;1.25;;;;;;;;;;5073812;28;20562;-47
2023/07/02 08:56:47;;;;;;;4.20;1.63;;;;;;;;;;5073765;28;20042;-47
2023/07/02 08:59:14;;;;;;;3.28;1.63;;;;;;;;;;5073635;28;20020;-47
2023/07/02 09:01:51;;;;;;;3.15;1.58;;;;;;;;;;5073739;28;20551;-46
2023/07/02 09:04:18;;;;;;;2.15;1.38;;;;;;;;;;5073646;28;20032;-46
2023/07/02 09:06:45;;;;;;;3.60;1.52;;;;;;;;;;5073478;28;20062;-47
2023/07/02 09:09:12;;;;;;;1.70;1.10;;;;;;;;;;5073459;28;20078;-47
2023/07/02 09:11:51;;;;;;;2.97;1.67;;;;;;;;;;5073461;28;20028;-46
2023/07/02 09:14:32;;;;;;;1.73;1.33;;;;;;;;;;5073338;28;20078;-47
2023/07/02 09:17:05;;;;;;;2.25;1.40;;;;;;;;;;5073452;28;20483;-46
2023/07/02 09:19:32;;;;;;;2.65;1.20;;;;;;;;;;5073297;28;20028;-46
2023/07/02 09:22:03;;;;;;;2.35;1.20;;;;;;;;;;5073349;28;20035;-46
2023/07/02 09:24:31;;;;;;;2.15;1.40;;;;;;;;;;5073093;28;20044;-46
2023/07/02 09:27:02;;;;;;;1.77;1.38;;;;;;;;;;5073159;28;20167;-46
2023/07/02 09:29:30;;;;;;;2.15;1.27;;;;;;;;;;5073092;28;20032;-47
2023/07/02 09:31:58;;;;;;;2.90;1.50;;;;;;;;;;5073129;28;20501;-46
2023/07/02 09:34:29;;;;;;;2.08;1.20;;;;;;;;;;5072940;28;20036;-46
2023/07/02 09:36:56;;;;;;;2.03;1.23;;;;;;;;;;5073035;28;20033;-46
2023/07/02 09:39:27;;;;;;;2.30;1.50;;;;;;;;;;5072854;28;20104;-46
2023/07/02 09:41:56;;;;;;;3.20;1.42;;;;;;;;;;5073083;28;20455;-48
2023/07/02 09:44:23;;;;;;;2.13;1.40;;;;;;;;;;5072814;28;20078;-47
2023/07/02 09:46:59;;;;;;;3.67;1.50;;;;;;;;;;5072832;28;20028;-46
2023/07/02 09:49:26;;;;;;;1.90;1.30;;;;;;;;;;5072566;28;20024;-46
2023/07/02 09:51:53;;;;;;;2.63;1.45;;;;;;;;;;5072709;28;20449;-47
2023/07/02 09:54:20;;;;;;;2.45;1.25;;;;;;;;;;5072606;28;20086;-48
2023/07/02 09:56:47;;;;;;;2.50;1.40;;;;;;;;;;5072687;28;20032;-47
2023/07/02 09:59:15;;;;;;;2.25;1.45;;;;;;;;;;5072504;28;20029;-47
2023/07/02 10:01:42;;;;;;;1.40;1.00;;;;;;;;;;5072576;28;20103;-47
2023/07/02 10:04:15;;;;;;;1.85;1.30;;;;;;;;;;5071984;28;20082;-47
2023/07/02 10:06:45;;;;;;;2.13;1.48;;;;;;;;;;5072448;28;20050;-49
2023/07/02 10:09:12;;;;;;;1.80;1.20;;;;;;;;;;5072325;28;20028;-46
2023/07/02 10:11:39;;;;;;;2.17;1.38;;;;;;;;;;5072192;28;20032;-48
2023/07/02 10:14:06;;;;;;;1.55;1.20;;;;;;;;;;5072206;28;20090;-47
2023/07/02 10:16:33;;;;;;;3.45;1.40;;;;;;;;;;5072160;28;20036;-47
2023/07/02 10:19:10;;;;;;;1.98;1.30;;;;;;;;;;5072132;28;20498;-47
2023/07/02 10:21:37;;;;;;;2.92;1.60;;;;;;;;;;5072185;28;20024;-47
2023/07/02 10:24:14;;;;;;;3.35;1.30;;;;;;;;;;5071980;28;20054;-46
2023/07/02 10:27:01;;;;;;;2.78;1.20;;;;;;;;;;5072042;28;20060;-48
2023/07/02 10:29:29;;;;;;;2.67;1.35;;;;;;;;;;5071820;28;20031;-47
2023/07/02 10:31:56;;;;;;;2.70;1.10;;;;;;;;;;5072024;28;20486;-46
2023/07/02 10:34:36;;;;;;;1.60;1.10;;;;;;;;;;5071856;28;20044;-46
2023/07/02 10:37:03;;;;;;;1.77;1.20;;;;;;;;;;5071866;28;20382;-47
2023/07/02 10:39:31;;;;;;;4.50;1.40;;;;;;;;;;5071819;28;20042;-47
2023/07/02 10:42:05;;;;;;;1.50;1.02;;;;;;;;;;5071885;28;20029;-46
2023/07/02 10:44:32;;;;;;;1.58;1.10;;;;;;;;;;5071630;28;20086;-47
2023/07/02 10:46:59;;;;;;;2.28;1.38;;;;;;;;;;5071855;28;20028;-46
2023/07/02 10:49:33;;;;;;;3.53;1.25;;;;;;;;;;5071630;28;20032;-46
2023/07/02 10:52:00;;;;;;;2.92;1.30;;;;;;;;;;5071774;28;20028;-47
2023/07/02 10:54:27;;;;;;;1.88;1.40;;;;;;;;;;5071575;28;20563;-47
2023/07/02 10:56:58;;;;;;;2.25;1.30;;;;;;;;;;5071701;28;20028;-47
2023/07/02 10:59:26;;;;;;;2.90;1.42;;;;;;;;;;5071577;28;20028;-47
2023/07/02 11:01:55;;;;;;;3.30;1.60;;;;;;;;;;5071632;28;20045;-46
2023/07/02 11:04:23;;;;;;;2.03;1.30;;;;;;;;;;5071412;28;20490;-46
2023/07/02 11:06:50;;;;;;;2.15;1.38;;;;;;;;;;5071685;28;20561;-46
2023/07/02 11:09:24;;;;;;;1.90;1.33;;;;;;;;;;5071480;28;20020;-48
2023/07/02 11:12:00;;;;;;;2.90;1.50;;;;;;;;;;5071383;28;20475;-46
2023/07/02 11:14:34;;;;;;;3.13;1.40;;;;;;;;;;5071690;28;20043;-47
2023/07/02 11:17:04;;;;;;;2.30;1.40;;;;;;;;;;5075762;28;20036;-48
2023/07/02 11:19:32;;;;;;;3.40;1.30;;;;;;;;;;5075319;28;20483;-48
2023/07/02 11:22:00;;;;;;;2.15;1.27;;;;;;;;;;5075561;28;20033;-46
2023/07/02 11:24:31;;;;;;;2.65;1.45;;;;;;;;;;5075243;28;20087;-47
2023/07/02 11:26:59;;;;;;;2.05;1.38;;;;;;;;;;5075510;28;20028;-46
2023/07/02 11:29:26;;;;;;;2.28;1.42;;;;;;;;;;5075347;28;20029;-47
2023/07/02 11:31:53;;;;;;;3.03;1.50;;;;;;;;;;5075438;28;20406;-47
2023/07/02 11:34:22;;;;;;;2.05;1.38;;;;;;;;;;5075141;28;20418;-47
2023/07/02 11:36:49;;;;;;;2.05;1.17;;;;;;;;;;5075284;28;20033;-46
2023/07/02 11:39:17;;;;;;;2.50;1.25;;;;;;;;;;5073764;28;20394;-46
2023/07/02 11:41:44;;;;;;;2.75;1.40;;;;;;;;;;5075263;28;20125;-47
2023/07/02 11:44:12;;;;;;;1.98;1.58;;;;;;;;;;5075206;28;20040;-46
2023/07/02 11:46:39;;;;;;;2.63;1.27;;;;;;;;;;5075113;28;20032;-47
2023/07/02 11:49:08;;;;;;;1.77;1.40;;;;;;;;;;5075039;28;20024;-47
2023/07/02 11:51:39;;;;;;;3.08;1.30;;;;;;;;;;5075094;28;20029;-47
2023/07/02 11:54:06;;;;;;;2.92;1.38;;;;;;;;;;5074995;28;20081;-46
2023/07/02 11:56:33;;;;;;;1.73;1.40;;;;;;;;;;5074957;28;20036;-47
2023/07/02 11:59:00;;;;;;;1.88;1.38;;;;;;;;;;5074776;28;20020;-46
2023/07/02 12:01:27;;;;;;;1.73;1.33;;;;;;;;;;5074719;28;20063;-47
2023/07/02 12:03:54;;;;;;;2.17;1.48;;;;;;;;;;5074811;28;20082;-47
2023/07/02 12:06:21;;;;;;;2.45;1.60;;;;;;;;;;5074783;28;20024;-48
2023/07/02 12:08:48;;;;;;;2.03;1.33;;;;;;;;;;5074648;28;20569;-51
2023/07/02 12:11:15;;;;;;;1.92;1.10;;;;;;;;;;5074699;28;20085;-49
2023/07/02 12:13:42;;;;;;;1.35;1.20;;;;;;;;;;5074453;28;20024;-48
2023/07/02 12:16:10;;;;;;;2.75;1.40;;;;;;;;;;5074526;28;20430;-49
2023/07/02 12:18:37;;;;;;;2.28;1.55;;;;;;;;;;5074463;28;20028;-48
2023/07/02 12:21:04;;;;;;;2.13;1.33;;;;;;;;;;5074545;28;20025;-48
2023/07/02 12:23:31;;;;;;;2.30;1.33;;;;;;;;;;5074252;28;20048;-48
2023/07/02 12:25:58;;;;;;;1.58;1.20;;;;;;;;;;5073951;28;20028;-49
2023/07/02 12:28:25;;;;;;;2.00;1.45;;;;;;;;;;5074357;28;20074;-48
2023/07/02 12:30:52;;;;;;;1.65;1.35;;;;;;;;;;5074344;28;20028;-48
2023/07/02 12:33:19;;;;;;;2.15;1.30;;;;;;;;;;5074341;28;20370;-49
2023/07/02 12:35:46;;;;;;;1.65;1.30;;;;;;;;;;5074252;28;20039;-49
2023/07/02 12:38:13;;;;;;;2.55;1.50;;;;;;;;;;5064350;28;20032;-48
2023/07/02 12:40:40;;;;;;;2.63;1.30;;;;;;;;;;5054057;28;20028;-48
2023/07/02 12:43:07;;;;;;;1.55;1.27;;;;;;;;;;5054075;28;20025;-48
2023/07/02 12:45:34;;;;;;;3.70;1.58;;;;;;;;;;5054032;28;20021;-48
2023/07/02 12:48:01;;;;;;;3.05;1.40;;;;;;;;;;5062106;28;20031;-47
2023/07/02 12:50:28;;;;;;;1.30;1.10;;;;;;;;;;5073981;28;20028;-49
2023/07/02 12:52:55;;;;;;;1.77;1.30;;;;;;;;;;5073873;28;20112;-48
2023/07/02 12:55:22;;;;;;;1.98;1.40;;;;;;;;;;5073797;28;20025;-48
2023/07/02 12:57:49;;;;;;;3.60;1.38;;;;;;;;;;5073650;28;20486;-48
2023/07/02 13:00:17;;;;;;;2.53;1.50;;;;;;;;;;5073788;28;20013;-48
2023/07/02 13:02:43;;;;;;;1.92;1.40;;;;;;;;;;5073709;28;20483;-49
2023/07/02 13:05:10;;;;;;;3.35;1.73;;;;;;;;;;5073672;28;20031;-48
2023/07/02 13:07:37;;;;;;;1.58;1.35;;;;;;;;;;5073495;28;20483;-48
2023/07/02 13:10:05;;;;;;;2.00;1.30;;;;;;;;;;5073602;28;20024;-48
2023/07/02 13:12:32;;;;;;;2.03;1.48;;;;;;;;;;5073457;28;20509;-48
2023/07/02 13:14:59;;;;;;;2.70;1.38;;;;;;;;;;5073406;28;20079;-48
2023/07/02 13:17:26;;;;;;;1.52;1.30;;;;;;;;;;5073380;28;20097;-48
2023/07/02 13:19:56;;;;;;;1.65;1.38;;;;;;;;;;5073296;28;20182;-47
2023/07/02 13:22:23;;;;;;;1.42;1.30;;;;;;;;;;5073172;28;20094;-48
2023/07/02 13:24:50;;;;;;;1.75;1.20;;;;;;;;;;5073125;28;20410;-50
2023/07/02 13:27:19;;;;;;;2.33;1.42;;;;;;;;;;5055462;28;20063;-48
2023/07/02 13:29:46;;;;;;;2.35;1.20;;;;;;;;;;5044989;28;20111;-47
2023/07/02 13:32:13;;;;;;;3.20;1.40;;;;;;;;;;5043116;28;20383;-48
2023/07/02 13:34:40;;;;;;;2.63;1.42;;;;;;;;;;5041162;28;20048;-47
2023/07/02 13:37:07;;;;;;;1.75;1.40;;;;;;;;;;5041831;28;20104;-46
2023/07/02 13:39:34;;;;;;;2.53;1.30;;;;;;;;;;5042905;28;20026;-46
2023/07/02 13:42:01;;;;;;;1.40;1.30;;;;;;;;;;5041364;28;20395;-46
2023/07/02 13:44:28;;;;;;;2.80;1.40;;;;;;;;;;5042166;28;20433;-46
2023/07/02 13:46:58;;;;;;;2.92;1.40;;;;;;;;;;5041380;28;20030;-50
2023/07/02 13:49:25;;;;;;;2.00;1.70;;;;;;;;;;5040360;28;20380;-46
2023/07/02 13:51:52;;;;;;;3.03;1.45;;;;;;;;;;5041512;28;20025;-48
2023/07/02 13:54:19;;;;;;;3.20;1.63;;;;;;;;;;5048472;28;20494;-48
2023/07/02 13:56:47;;;;;;;7.50;1.75;;;;;;;;;;5050676;28;20044;-50
2023/07/02 13:59:15;;;;;;;2.80;1.52;;;;;;;;;;5044992;28;20108;-46
2023/07/02 14:01:42;;;;;;;3.78;1.65;;;;;;;;;;5045820;28;20099;-46
2023/07/02 14:04:10;;;;;;;5.45;1.88;;;;;;;;;;5052252;28;20025;-51
2023/07/02 14:06:37;;;;;;;3.47;1.65;;;;;;;;;;5052062;28;20052;-47
2023/07/02 14:09:05;;;;;;;4.00;1.73;;;;;;;;;;5051819;28;20036;-48
2023/07/02 14:11:33;;;;;;;3.05;1.77;;;;;;;;;;5052005;28;20021;-46
2023/07/02 14:14:00;;;;;;;5.53;1.92;;;;;;;;;;5051809;28;20080;-48
2023/07/02 14:16:27;;;;;;;8.25;1.90;;;;;;;;;;5051449;28;20426;-48
2023/07/02 14:18:54;;;;;;;5.75;1.80;;;;;;;;;;5051761;28;20033;-46
2023/07/02 14:21:21;;;;;;;6.63;1.80;;;;;;;;;;5034321;28;20037;-47
2023/07/02 14:23:48;;;;;;;5.50;1.88;;;;;;;;;;5031333;28;20042;-49
2023/07/02 14:26:18;;;;;;;3.75;1.70;;;;;;;;;;5031388;28;20653;-46
2023/07/02 14:28:45;;;;;;;6.25;2.03;;;;;;;;;;5030271;28;20144;-47
2023/07/02 14:31:12;;;;;;;5.28;1.67;;;;;;;;;;5031222;28;20060;-46
2023/07/02 14:33:40;;;;;;;5.63;1.48;;;;;;;;;;5043373;28;20044;-48
2023/07/02 14:36:07;;;;;;;2.63;1.75;;;;;;;;;;5046011;28;20037;-50
2023/07/02 14:38:34;;;;;;;4.95;1.80;;;;;;;;;;5043695;28;20040;-48
2023/07/02 14:41:01;;;;;;;3.83;1.70;;;;;;;;;;5046153;28;20064;-48
2023/07/02 14:43:29;;;;;;;7.10;1.83;;;;;;;;;;5051360;28;20024;-47